createdAt,value
2023-01-15T00:01:49.411Z,95.58
2023-01-15T00:04:15.910Z,95.49
2023-01-15T00:06:42.704Z,95.67
2023-01-15T00:09:13.210Z,95.38
2023-01-15T00:11:39.630Z,95.48
2023-01-15T00:14:06.087Z,94.96
2023-01-15T00:16:32.619Z,95.13
2023-01-15T00:19:00.557Z,95.69
2023-01-15T00:21:27.727Z,95.73
2023-01-15T00:24:12.656Z,95.87
2023-01-15T00:26:58.081Z,95.59
2023-01-15T00:29:24.981Z,94.85
2023-01-15T00:32:00.682Z,94.92
2023-01-15T00:34:27.571Z,94.48
2023-01-15T00:36:54.379Z,94.62
2023-01-15T00:39:21.086Z,94.42
2023-01-15T00:41:47.939Z,94.80
2023-01-15T00:44:14.392Z,94.68
2023-01-15T00:46:40.917Z,94.53
2023-01-15T00:49:07.656Z,94.91
2023-01-15T00:51:34.348Z,94.50
2023-01-15T00:54:00.939Z,94.69
2023-01-15T00:56:27.562Z,94.50
2023-01-15T00:58:54.013Z,94.25
2023-01-15T01:01:20.504Z,94.05
2023-01-15T01:03:52.966Z,94.28
2023-01-15T01:06:20.848Z,94.58
2023-01-15T01:08:47.926Z,94.52
2023-01-15T01:11:16.159Z,94.36
2023-01-15T01:13:43.041Z,94.49
2023-01-15T01:16:24.470Z,93.90
2023-01-15T01:18:51.096Z,94.23
2023-01-15T01:21:17.781Z,94.30
2023-01-15T01:23:44.220Z,94.01
2023-01-15T01:26:10.823Z,93.88
2023-01-15T01:28:37.279Z,93.89
2023-01-15T01:31:07.313Z,93.88
2023-01-15T01:33:33.790Z,93.66
2023-01-15T01:36:00.231Z,93.85
2023-01-15T01:38:26.974Z,93.81
2023-01-15T01:40:53.668Z,93.89
2023-01-15T01:43:24.432Z,94.17
2023-01-15T01:45:50.965Z,93.99
2023-01-15T01:48:18.808Z,94.37
2023-01-15T01:50:46.366Z,94.04
2023-01-15T01:53:17.569Z,94.51
2023-01-15T01:55:44.367Z,94.09
2023-01-15T01:58:12.193Z,93.92
2023-01-15T02:00:39.746Z,93.31
2023-01-15T02:03:08.619Z,93.83
2023-01-15T02:05:49.008Z,93.69
2023-01-15T02:08:15.558Z,94.10
2023-01-15T02:10:42.012Z,93.89
2023-01-15T02:13:14.147Z,93.45
2023-01-15T02:15:43.742Z,93.79
2023-01-15T02:18:16.371Z,93.26
2023-01-15T02:20:48.377Z,92.88
2023-01-15T02:23:28.743Z,92.66
2023-01-15T02:25:58.330Z,92.33
2023-01-15T02:28:26.965Z,92.02
2023-01-15T02:31:04.722Z,92.24
2023-01-15T02:33:33.941Z,92.41
2023-01-15T02:36:06.673Z,91.43
2023-01-15T02:38:36.099Z,92.14
2023-01-15T02:41:04.730Z,91.99
2023-01-15T02:43:34.915Z,91.50
2023-01-15T02:46:02.346Z,91.45
2023-01-15T02:48:30.573Z,91.71
2023-01-15T02:51:17.398Z,91.21
2023-01-15T02:53:45.747Z,91.16
2023-01-15T02:56:14.737Z,91.10
2023-01-15T02:58:42.709Z,91.17
2023-01-15T03:01:11.466Z,91.27
2023-01-15T03:03:42.091Z,90.55
2023-01-15T03:06:12.658Z,90.26
2023-01-15T03:08:39.194Z,90.13
2023-01-15T03:11:10.049Z,89.99
2023-01-15T03:13:36.448Z,89.90
2023-01-15T03:16:33.303Z,89.99
2023-01-15T03:18:59.755Z,89.96
2023-01-15T03:21:45.139Z,89.68
2023-01-15T03:24:13.972Z,90.29
2023-01-15T03:26:40.539Z,89.58
2023-01-15T03:29:08.457Z,90.33
2023-01-15T03:31:35.637Z,89.86
2023-01-15T03:34:02.362Z,89.40
2023-01-15T03:36:28.829Z,89.72
2023-01-15T03:38:55.323Z,90.00
2023-01-15T03:41:27.798Z,90.02
2023-01-15T03:44:10.693Z,89.87
2023-01-15T03:46:40.309Z,90.31
2023-01-15T03:49:10.426Z,90.43
2023-01-15T03:51:48.741Z,90.11
2023-01-15T03:54:19.938Z,90.04
2023-01-15T03:57:05.886Z,90.33
2023-01-15T03:59:35.765Z,90.25
2023-01-15T04:02:03.915Z,90.08
2023-01-15T04:04:31.089Z,90.14
2023-01-15T04:06:58.069Z,90.27
2023-01-15T04:09:24.789Z,90.02
2023-01-15T04:11:51.234Z,90.67
2023-01-15T04:14:17.959Z,89.95
2023-01-15T04:16:44.479Z,90.51
2023-01-15T04:19:10.913Z,90.01
2023-01-15T04:21:37.368Z,90.31
2023-01-15T04:24:03.963Z,89.99
2023-01-15T04:26:30.455Z,89.31
2023-01-15T04:28:56.886Z,89.77
2023-01-15T04:31:23.469Z,89.38
2023-01-15T04:33:49.940Z,90.00
2023-01-15T04:36:16.505Z,89.87
2023-01-15T04:38:43.000Z,89.34
2023-01-15T04:41:28.648Z,88.89
2023-01-15T04:44:07.155Z,89.39
2023-01-15T04:46:35.333Z,88.73
2023-01-15T04:49:02.067Z,88.88
2023-01-15T04:51:28.629Z,89.39
2023-01-15T04:53:55.062Z,89.00
2023-01-15T04:56:21.523Z,89.46
2023-01-15T04:58:48.126Z,89.42
2023-01-15T05:01:16.120Z,89.04
2023-01-15T05:03:42.882Z,88.71
2023-01-15T05:06:09.715Z,89.15
2023-01-15T05:08:36.335Z,88.75
2023-01-15T05:11:03.736Z,89.03
2023-01-15T05:13:32.303Z,88.49
2023-01-15T05:16:18.378Z,88.26
2023-01-15T05:18:45.538Z,88.77
2023-01-15T05:21:20.645Z,88.45
2023-01-15T05:23:48.091Z,88.29
2023-01-15T05:26:14.571Z,88.73
2023-01-15T05:28:41.024Z,88.46
2023-01-15T05:31:11.734Z,87.44
2023-01-15T05:33:38.769Z,87.70
2023-01-15T05:36:06.256Z,88.15
2023-01-15T05:38:33.034Z,88.61
2023-01-15T05:40:59.558Z,88.41
2023-01-15T05:43:26.098Z,87.71
2023-01-15T05:45:52.582Z,87.45
2023-01-15T05:48:19.044Z,88.16
2023-01-15T05:50:45.481Z,87.85
2023-01-15T05:53:11.965Z,87.58
2023-01-15T05:55:38.405Z,87.58
2023-01-15T05:58:04.914Z,87.75
2023-01-15T06:00:31.349Z,87.89
2023-01-15T06:02:58.180Z,88.05
2023-01-15T06:05:24.661Z,88.34
2023-01-15T06:07:52.945Z,87.79
2023-01-15T06:10:19.369Z,88.58
2023-01-15T06:12:45.817Z,88.78
2023-01-15T06:15:12.427Z,87.97
2023-01-15T06:17:38.850Z,87.81
2023-01-15T06:20:05.546Z,88.60
2023-01-15T06:22:31.959Z,89.00
2023-01-15T06:24:58.521Z,89.14
2023-01-15T06:27:24.954Z,88.70
2023-01-15T06:29:51.500Z,88.01
2023-01-15T06:32:17.922Z,88.08
2023-01-15T06:34:44.662Z,88.20
2023-01-15T06:37:11.228Z,88.41
2023-01-15T06:39:37.629Z,87.93
2023-01-15T06:42:22.379Z,88.09
2023-01-15T06:45:07.254Z,87.62
2023-01-15T06:47:33.859Z,87.87
2023-01-15T06:50:00.316Z,87.94
2023-01-15T06:52:28.068Z,87.66
2023-01-15T06:54:54.828Z,87.76
2023-01-15T06:57:21.385Z,88.06
2023-01-15T06:59:48.876Z,87.27
2023-01-15T07:02:15.739Z,88.12
2023-01-15T07:04:42.165Z,87.61
2023-01-15T07:07:08.787Z,87.77
2023-01-15T07:09:35.301Z,87.15
2023-01-15T07:12:01.713Z,87.66
2023-01-15T07:14:28.284Z,87.25
2023-01-15T07:16:55.654Z,87.48
2023-01-15T07:19:22.190Z,86.79
2023-01-15T07:21:49.060Z,86.99
2023-01-15T07:24:16.131Z,86.89
2023-01-15T07:26:43.190Z,87.01
2023-01-15T07:29:09.775Z,86.08
2023-01-15T07:31:36.262Z,87.02
2023-01-15T07:34:02.733Z,87.10
2023-01-15T07:36:29.228Z,87.02
2023-01-15T07:38:55.743Z,86.64
2023-01-15T07:41:40.746Z,86.21
2023-01-15T07:44:28.145Z,86.49
2023-01-15T07:47:12.996Z,86.34
2023-01-15T07:49:47.066Z,86.71
2023-01-15T07:52:14.876Z,86.46
2023-01-15T07:54:41.319Z,85.47
2023-01-15T07:57:08.089Z,85.91
2023-01-15T07:59:34.749Z,85.95
2023-01-15T08:02:01.353Z,86.13
2023-01-15T08:04:27.835Z,86.07
2023-01-15T08:06:54.363Z,86.08
2023-01-15T08:09:21.797Z,86.03
2023-01-15T08:12:07.249Z,85.93
2023-01-15T08:14:52.506Z,85.41
2023-01-15T08:17:18.977Z,85.87
2023-01-15T08:19:45.494Z,85.67
2023-01-15T08:22:12.041Z,85.73
2023-01-15T08:24:38.521Z,85.38
2023-01-15T08:27:05.124Z,85.76
2023-01-15T08:29:31.645Z,85.89
2023-01-15T08:31:58.079Z,85.63
2023-01-15T08:34:24.511Z,85.15
2023-01-15T08:36:57.187Z,85.72
2023-01-15T08:39:23.645Z,85.79
2023-01-15T08:41:50.155Z,85.47
2023-01-15T08:44:17.150Z,85.69
2023-01-15T08:46:43.887Z,85.29
2023-01-15T08:49:10.761Z,84.91
2023-01-15T08:51:37.247Z,84.08
2023-01-15T08:54:03.826Z,83.25
2023-01-15T08:56:30.332Z,83.78
2023-01-15T08:58:56.797Z,83.55
2023-01-15T09:01:23.388Z,83.03
2023-01-15T09:03:49.919Z,83.07
2023-01-15T09:06:16.421Z,82.57
2023-01-15T09:08:42.875Z,83.45
2023-01-15T09:11:09.855Z,83.25
2023-01-15T09:13:36.792Z,83.41
2023-01-15T09:16:04.316Z,82.70
2023-01-15T09:18:31.009Z,82.69
2023-01-15T09:20:58.058Z,82.15
2023-01-15T09:23:24.600Z,82.53
2023-01-15T09:25:54.648Z,82.22
2023-01-15T09:28:21.272Z,82.14
2023-01-15T09:30:48.100Z,82.28
2023-01-15T09:33:14.649Z,81.61
2023-01-15T09:35:42.260Z,81.19
2023-01-15T09:38:12.070Z,81.33
2023-01-15T09:40:57.457Z,80.48
2023-01-15T09:43:50.108Z,80.11
2023-01-15T09:46:23.159Z,81.05
2023-01-15T09:48:49.600Z,80.40
2023-01-15T09:51:16.011Z,81.20
2023-01-15T09:53:55.867Z,79.98
2023-01-15T09:56:24.453Z,79.89
2023-01-15T09:58:52.462Z,78.84
2023-01-15T10:01:20.785Z,78.98
2023-01-15T10:03:52.874Z,79.38
2023-01-15T10:06:38.077Z,78.21
2023-01-15T10:09:11.630Z,79.21
2023-01-15T10:12:01.897Z,77.75
2023-01-15T10:14:51.456Z,78.78
2023-01-15T10:17:21.139Z,77.96
2023-01-15T10:19:47.695Z,78.40
2023-01-15T10:22:36.943Z,78.91
2023-01-15T10:25:07.669Z,77.84
2023-01-15T10:27:34.316Z,78.38
2023-01-15T10:30:03.937Z,77.68
2023-01-15T10:33:01.509Z,77.88
2023-01-15T10:35:29.026Z,78.00
2023-01-15T10:38:01.671Z,78.96
2023-01-15T10:40:31.164Z,79.44
2023-01-15T10:42:58.701Z,78.97
2023-01-15T10:45:30.225Z,78.17
2023-01-15T10:48:06.040Z,78.63
2023-01-15T10:50:32.681Z,78.87
2023-01-15T10:53:02.492Z,79.70
2023-01-15T10:55:46.688Z,78.95
2023-01-15T10:58:16.048Z,79.33
2023-01-15T11:00:46.022Z,79.69
2023-01-15T11:03:16.608Z,80.05
2023-01-15T11:05:45.839Z,79.63
2023-01-15T11:09:06.540Z,80.30
2023-01-15T11:12:01.567Z,79.97
2023-01-15T11:15:00.841Z,79.91
2023-01-15T11:18:15.332Z,79.41
2023-01-15T11:20:46.165Z,79.77
2023-01-15T11:23:14.360Z,79.79
2023-01-15T11:25:48.883Z,78.71
2023-01-15T11:28:15.637Z,78.89
2023-01-15T11:30:42.420Z,79.02
2023-01-15T11:33:25.537Z,79.88
2023-01-15T11:35:59.873Z,80.08
2023-01-15T11:38:30.288Z,79.17
2023-01-15T11:41:05.409Z,79.78
2023-01-15T11:43:50.755Z,80.43
2023-01-15T11:46:46.012Z,80.13
2023-01-15T11:49:34.918Z,79.81
2023-01-15T11:52:02.419Z,80.21
2023-01-15T11:54:30.271Z,80.03
2023-01-15T11:56:57.586Z,79.39
2023-01-15T11:59:25.153Z,79.12
2023-01-15T12:01:57.658Z,79.60
2023-01-15T12:04:24.142Z,79.63
2023-01-15T12:06:50.936Z,79.77
2023-01-15T12:09:17.339Z,79.33
2023-01-15T12:11:55.757Z,78.86
2023-01-15T12:15:00.718Z,79.56
2023-01-15T12:17:45.357Z,79.38
2023-01-15T12:20:38.275Z,79.27
2023-01-15T12:23:23.325Z,79.27
2023-01-15T12:25:49.816Z,79.25
2023-01-15T12:28:20.754Z,79.46
2023-01-15T12:31:13.365Z,79.46
2023-01-15T12:33:42.847Z,79.98
2023-01-15T12:36:20.011Z,79.71
2023-01-15T12:38:46.571Z,79.74
2023-01-15T12:41:21.160Z,80.12
2023-01-15T12:44:08.779Z,80.02
2023-01-15T12:46:38.590Z,79.80
2023-01-15T12:49:10.518Z,80.31
2023-01-15T12:51:54.099Z,80.08
2023-01-15T12:54:27.830Z,79.37
2023-01-15T12:56:57.435Z,79.29
2023-01-15T12:59:23.917Z,79.26
2023-01-15T13:02:10.254Z,79.69
2023-01-15T13:04:46.479Z,79.67
2023-01-15T13:07:23.560Z,79.41
2023-01-15T13:09:56.260Z,79.36
2023-01-15T13:12:22.683Z,79.77
2023-01-15T13:14:50.747Z,79.66
2023-01-15T13:17:24.985Z,79.66
2023-01-15T13:19:59.794Z,80.05
2023-01-15T13:22:27.832Z,80.28
2023-01-15T13:25:12.813Z,79.76
2023-01-15T13:27:57.951Z,79.43
2023-01-15T13:30:49.406Z,79.78
2023-01-15T13:33:38.934Z,79.74
2023-01-15T13:36:25.963Z,80.08
2023-01-15T13:38:54.692Z,80.10
2023-01-15T13:41:43.722Z,80.29
2023-01-15T13:44:20.688Z,80.47
2023-01-15T13:46:49.255Z,80.94
2023-01-15T13:49:22.817Z,80.65
2023-01-15T13:51:50.002Z,80.91
2023-01-15T13:54:18.829Z,81.58
2023-01-15T13:56:45.823Z,81.34
2023-01-15T13:59:30.731Z,81.53
2023-01-15T14:01:57.317Z,81.54
2023-01-15T14:04:36.230Z,81.12
2023-01-15T14:07:02.899Z,81.70
2023-01-15T14:09:31.777Z,82.09
2023-01-15T14:12:11.312Z,82.21
2023-01-15T14:14:46.904Z,81.84
2023-01-15T14:17:13.306Z,82.11
2023-01-15T14:20:00.013Z,81.97
2023-01-15T14:22:26.435Z,82.19
2023-01-15T14:24:52.871Z,82.27
2023-01-15T14:27:33.321Z,82.80
2023-01-15T14:30:08.879Z,82.56
2023-01-15T14:32:49.394Z,83.69
2023-01-15T14:35:24.329Z,83.46
2023-01-15T14:37:58.450Z,83.79
2023-01-15T14:40:28.242Z,83.43
2023-01-15T14:43:01.801Z,83.51
2023-01-15T14:45:46.571Z,83.91
2023-01-15T14:48:18.827Z,83.89
2023-01-15T14:50:46.248Z,83.99
2023-01-15T14:53:15.608Z,84.78
2023-01-15T14:55:54.020Z,85.24
2023-01-15T14:58:26.537Z,85.78
2023-01-15T15:00:55.823Z,85.44
2023-01-15T15:03:26.201Z,85.40
2023-01-15T15:05:52.953Z,85.65
2023-01-15T15:08:19.884Z,85.82
2023-01-15T15:10:51.059Z,85.21
2023-01-15T15:13:29.548Z,85.44
2023-01-15T15:16:12.577Z,85.40
2023-01-15T15:18:55.134Z,85.42
2023-01-15T15:21:24.398Z,86.36
2023-01-15T15:24:07.402Z,86.55
2023-01-15T15:26:37.665Z,86.15
2023-01-15T15:29:10.227Z,86.66
2023-01-15T15:31:42.215Z,86.51
2023-01-15T15:34:16.015Z,86.64
2023-01-15T15:36:45.394Z,87.79
2023-01-15T15:39:30.760Z,87.49
2023-01-15T15:42:17.498Z,87.62
2023-01-15T15:45:02.317Z,88.50
2023-01-15T15:47:47.331Z,89.15
2023-01-15T15:50:21.705Z,89.79
2023-01-15T15:52:49.401Z,90.20
2023-01-15T15:55:16.984Z,89.87
2023-01-15T15:57:44.908Z,90.71
2023-01-15T16:00:16.954Z,90.67
2023-01-15T16:02:44.353Z,90.24
2023-01-15T16:05:22.852Z,90.65
2023-01-15T16:07:49.707Z,90.42
2023-01-15T16:10:22.660Z,90.63
2023-01-15T16:12:52.367Z,91.24
2023-01-15T16:15:30.214Z,91.23
2023-01-15T16:17:57.824Z,91.39
2023-01-15T16:20:25.171Z,92.93
2023-01-15T16:22:59.371Z,93.12
2023-01-15T16:25:32.909Z,93.26
2023-01-15T16:28:00.127Z,93.59
2023-01-15T16:30:27.661Z,92.73
2023-01-15T16:32:56.437Z,93.22
2023-01-15T16:35:25.134Z,94.55
2023-01-15T16:37:53.568Z,94.33
2023-01-15T16:40:40.571Z,95.37
2023-01-15T16:43:18.133Z,95.26
2023-01-15T16:46:07.776Z,94.58
2023-01-15T16:48:38.539Z,94.86
2023-01-15T16:51:24.246Z,95.49
2023-01-15T16:53:50.701Z,95.55
2023-01-15T16:56:38.688Z,95.82
2023-01-15T16:59:14.648Z,95.53
2023-01-15T17:01:42.992Z,96.20
2023-01-15T17:04:24.587Z,96.24
2023-01-15T17:07:14.371Z,96.16
2023-01-15T17:09:45.600Z,96.95
2023-01-15T17:12:28.203Z,96.38
2023-01-15T17:14:54.857Z,96.12
2023-01-15T17:17:21.292Z,95.78
2023-01-15T17:19:48.194Z,95.74
2023-01-15T17:22:15.770Z,96.14
2023-01-15T17:24:49.323Z,97.33
2023-01-15T17:27:16.032Z,97.39
2023-01-15T17:29:42.631Z,97.50
2023-01-15T17:32:14.393Z,97.45
2023-01-15T17:34:40.856Z,98.03
2023-01-15T17:37:07.495Z,97.81
2023-01-15T17:39:34.014Z,97.50
2023-01-15T17:42:00.493Z,97.92
2023-01-15T17:44:26.951Z,97.56
2023-01-15T17:46:53.386Z,97.05
2023-01-15T17:49:19.825Z,96.42
2023-01-15T17:51:46.409Z,96.98
2023-01-15T17:54:32.873Z,96.18
2023-01-15T17:57:18.054Z,96.65
2023-01-15T18:00:03.363Z,96.89
2023-01-15T18:02:48.554Z,96.77
2023-01-15T18:05:27.109Z,96.30
2023-01-15T18:07:56.653Z,96.71
2023-01-15T18:10:23.702Z,97.18
2023-01-15T18:12:50.201Z,97.09
2023-01-15T18:15:20.148Z,96.97
2023-01-15T18:17:46.777Z,97.06
2023-01-15T18:20:13.879Z,97.30
2023-01-15T18:22:40.375Z,96.96
2023-01-15T18:25:07.228Z,97.14
2023-01-15T18:27:33.741Z,97.35
2023-01-15T18:30:00.356Z,97.52
2023-01-15T18:32:33.371Z,97.74
2023-01-15T18:35:00.448Z,97.59
2023-01-15T18:37:27.052Z,97.62
2023-01-15T18:39:53.566Z,97.19
2023-01-15T18:42:38.519Z,97.63
2023-01-15T18:45:23.545Z,97.66
2023-01-15T18:47:50.063Z,97.43
2023-01-15T18:50:16.715Z,97.73
2023-01-15T18:52:50.111Z,98.35
2023-01-15T18:55:17.292Z,98.15
2023-01-15T18:57:43.775Z,98.11
2023-01-15T19:00:11.712Z,98.35
2023-01-15T19:02:38.339Z,98.83
2023-01-15T19:05:05.172Z,98.25
2023-01-15T19:07:33.071Z,98.84
2023-01-15T19:09:59.556Z,99.40
2023-01-15T19:12:26.092Z,99.18
2023-01-15T19:15:11.381Z,99.23
2023-01-15T19:17:56.543Z,98.70
2023-01-15T19:20:23.131Z,98.86
2023-01-15T19:22:59.001Z,99.00
2023-01-15T19:25:29.988Z,98.55
2023-01-15T19:27:56.654Z,98.58
2023-01-15T19:30:23.711Z,99.07
2023-01-15T19:32:50.388Z,98.60
2023-01-15T19:35:17.026Z,98.73
2023-01-15T19:37:43.672Z,98.62
2023-01-15T19:40:23.658Z,99.08
2023-01-15T19:43:09.435Z,99.05
2023-01-15T19:45:56.603Z,99.17
2023-01-15T19:48:41.780Z,99.67
2023-01-15T19:51:08.310Z,99.68
2023-01-15T19:53:37.213Z,99.28
2023-01-15T19:56:04.029Z,99.37
2023-01-15T19:58:32.228Z,99.68
2023-01-15T20:00:58.793Z,100.00
2023-01-15T20:03:25.354Z,99.85
2023-01-15T20:05:52.134Z,99.84
2023-01-15T20:08:18.795Z,99.84
2023-01-15T20:10:47.779Z,99.11
2023-01-15T20:13:35.050Z,99.11
2023-01-15T20:16:09.232Z,99.33
2023-01-15T20:18:35.760Z,99.43
2023-01-15T20:21:02.423Z,99.29
2023-01-15T20:23:29.195Z,99.54
2023-01-15T20:26:00.585Z,99.27
2023-01-15T20:28:27.412Z,99.24
2023-01-15T20:30:56.148Z,99.25
2023-01-15T20:33:23.091Z,99.13
2023-01-15T20:35:52.822Z,98.39
2023-01-15T20:38:19.936Z,98.53
2023-01-15T20:40:47.856Z,98.84
2023-01-15T20:43:32.860Z,98.82
2023-01-15T20:46:12.762Z,98.41
2023-01-15T20:48:57.745Z,98.73
2023-01-15T20:51:24.399Z,98.64
2023-01-15T20:53:53.224Z,97.86
2023-01-15T20:56:19.909Z,98.35
2023-01-15T20:58:46.502Z,97.62
2023-01-15T21:01:13.250Z,98.01
2023-01-15T21:03:46.441Z,98.14
2023-01-15T21:06:12.882Z,97.98
2023-01-15T21:08:40.867Z,98.15
2023-01-15T21:11:07.409Z,98.57
2023-01-15T21:13:33.951Z,98.57
2023-01-15T21:16:02.563Z,98.35
2023-01-15T21:18:30.451Z,98.09
2023-01-15T21:20:57.036Z,97.66
2023-01-15T21:23:24.101Z,97.60
2023-01-15T21:25:50.583Z,98.02
2023-01-15T21:28:17.227Z,97.67
2023-01-15T21:30:44.855Z,98.02
2023-01-15T21:33:11.700Z,97.73
2023-01-15T21:35:39.043Z,98.04
2023-01-15T21:38:05.533Z,97.84
2023-01-15T21:40:31.960Z,97.72
2023-01-15T21:43:17.080Z,97.91
2023-01-15T21:45:43.594Z,98.28
2023-01-15T21:48:10.067Z,98.34
2023-01-15T21:50:37.788Z,98.63
2023-01-15T21:53:04.306Z,98.45
2023-01-15T21:55:30.783Z,98.72
2023-01-15T21:57:58.189Z,98.29
2023-01-15T22:00:24.751Z,98.56
2023-01-15T22:02:51.344Z,98.50
2023-01-15T22:05:17.970Z,98.69
2023-01-15T22:07:44.405Z,98.83
2023-01-15T22:10:11.069Z,98.14
2023-01-15T22:12:42.039Z,98.70
2023-01-15T22:15:09.167Z,98.43
2023-01-15T22:17:35.802Z,98.32
2023-01-15T22:20:02.474Z,98.18
2023-01-15T22:22:33.741Z,98.07
2023-01-15T22:25:00.226Z,98.15
2023-01-15T22:27:28.036Z,97.70
2023-01-15T22:29:54.457Z,98.44
2023-01-15T22:32:20.884Z,98.04
2023-01-15T22:34:47.727Z,98.69
2023-01-15T22:37:15.040Z,98.14
2023-01-15T22:39:41.544Z,98.89
2023-01-15T22:42:24.942Z,98.78
2023-01-15T22:44:51.462Z,98.66
2023-01-15T22:47:18.631Z,98.01
2023-01-15T22:49:45.089Z,98.43
2023-01-15T22:52:11.649Z,98.23
2023-01-15T22:54:38.105Z,97.99
2023-01-15T22:57:05.245Z,99.12
2023-01-15T22:59:31.771Z,99.18
2023-01-15T23:01:58.273Z,99.02
2023-01-15T23:04:25.146Z,98.83
2023-01-15T23:06:52.207Z,98.65
2023-01-15T23:09:19.396Z,98.36
2023-01-15T23:11:46.369Z,98.66
2023-01-15T23:14:13.235Z,99.13
2023-01-15T23:16:39.668Z,99.09
2023-01-15T23:19:06.445Z,98.93
2023-01-15T23:21:32.898Z,98.67
2023-01-15T23:24:00.652Z,99.32
2023-01-15T23:26:29.119Z,98.86
2023-01-15T23:28:55.600Z,99.49
2023-01-15T23:31:22.420Z,98.67
2023-01-15T23:33:49.100Z,99.49
2023-01-15T23:36:15.730Z,99.62
2023-01-15T23:38:43.246Z,99.85
2023-01-15T23:41:10.809Z,99.69
2023-01-15T23:43:56.508Z,99.45
2023-01-15T23:46:40.275Z,99.82
2023-01-15T23:49:08.015Z,99.31
2023-01-15T23:51:34.804Z,99.77
2023-01-15T23:54:01.952Z,99.32
2023-01-15T23:56:29.252Z,99.13
2023-01-15T23:58:56.034Z,99.38
